sensor_id;sensor_type;location;lat;lon;timestamp;P1;durP1;ratioP1;P2;durP2;ratioP2
81996;SDS011;71500;50.806;8.774;2024-02-16T00:00:39;6.50;;;4.20;;
81996;SDS011;71500;50.806;8.774;2024-02-16T00:03:33;7.30;;;3.50;;
81996;SDS011;71500;50.806;8.774;2024-02-16T00:06:04;4.80;;;3.80;;
81996;SDS011;71500;50.806;8.774;2024-02-16T00:08:36;5.70;;;4.20;;
81996;SDS011;71500;50.806;8.774;2024-02-16T00:11:08;6.60;;;3.90;;
81996;SDS011;71500;50.806;8.774;2024-02-16T00:13:39;6.10;;;4.10;;
81996;SDS011;71500;50.806;8.774;2024-02-16T00:16:11;6.70;;;4.20;;
81996;SDS011;71500;50.806;8.774;2024-02-16T00:18:42;6.80;;;4.10;;
81996;SDS011;71500;50.806;8.774;2024-02-16T00:21:13;6.60;;;3.70;;
81996;SDS011;71500;50.806;8.774;2024-02-16T00:23:46;6.40;;;3.60;;
81996;SDS011;71500;50.806;8.774;2024-02-16T00:26:17;8.10;;;4.40;;
81996;SDS011;71500;50.806;8.774;2024-02-16T00:28:49;5.50;;;3.80;;
81996;SDS011;71500;50.806;8.774;2024-02-16T00:31:21;7.50;;;4.30;;
81996;SDS011;71500;50.806;8.774;2024-02-16T00:33:52;6.00;;;4.40;;
81996;SDS011;71500;50.806;8.774;2024-02-16T00:36:24;6.50;;;4.40;;
81996;SDS011;71500;50.806;8.774;2024-02-16T00:38:59;7.80;;;4.80;;
81996;SDS011;71500;50.806;8.774;2024-02-16T00:41:32;7.60;;;4.30;;
81996;SDS011;71500;50.806;8.774;2024-02-16T00:44:03;8.20;;;5.00;;
81996;SDS011;71500;50.806;8.774;2024-02-16T00:46:36;6.80;;;3.90;;
81996;SDS011;71500;50.806;8.774;2024-02-16T00:49:08;7.20;;;4.00;;
81996;SDS011;71500;50.806;8.774;2024-02-16T00:51:40;6.70;;;3.90;;
81996;SDS011;71500;50.806;8.774;2024-02-16T00:54:11;5.30;;;3.90;;
81996;SDS011;71500;50.806;8.774;2024-02-16T00:56:42;5.80;;;4.00;;
81996;SDS011;71500;50.806;8.774;2024-02-16T00:59:14;5.90;;;3.90;;
81996;SDS011;71500;50.806;8.774;2024-02-16T01:01:46;6.10;;;3.90;;
81996;SDS011;71500;50.806;8.774;2024-02-16T01:04:18;4.40;;;3.00;;
81996;SDS011;71500;50.806;8.774;2024-02-16T01:06:49;6.80;;;4.10;;
81996;SDS011;71500;50.806;8.774;2024-02-16T01:09:20;6.10;;;3.70;;
81996;SDS011;71500;50.806;8.774;2024-02-16T01:11:52;4.90;;;3.40;;
81996;SDS011;71500;50.806;8.774;2024-02-16T01:14:23;7.20;;;3.70;;
81996;SDS011;71500;50.806;8.774;2024-02-16T01:16:55;5.70;;;3.90;;
81996;SDS011;71500;50.806;8.774;2024-02-16T01:19:26;5.20;;;3.30;;
81996;SDS011;71500;50.806;8.774;2024-02-16T01:21:57;6.00;;;4.10;;
81996;SDS011;71500;50.806;8.774;2024-02-16T01:24:29;5.10;;;3.80;;
81996;SDS011;71500;50.806;8.774;2024-02-16T01:27:00;6.70;;;3.80;;
81996;SDS011;71500;50.806;8.774;2024-02-16T01:29:32;5.30;;;4.20;;
81996;SDS011;71500;50.806;8.774;2024-02-16T01:32:03;5.70;;;3.90;;
81996;SDS011;71500;50.806;8.774;2024-02-16T01:34:35;4.90;;;3.40;;
81996;SDS011;71500;50.806;8.774;2024-02-16T01:37:08;4.70;;;3.30;;
81996;SDS011;71500;50.806;8.774;2024-02-16T01:39:39;6.00;;;3.60;;
81996;SDS011;71500;50.806;8.774;2024-02-16T01:42:11;5.70;;;3.50;;
81996;SDS011;71500;50.806;8.774;2024-02-16T01:44:42;5.40;;;3.80;;
81996;SDS011;71500;50.806;8.774;2024-02-16T01:47:14;5.60;;;4.10;;
81996;SDS011;71500;50.806;8.774;2024-02-16T01:49:48;6.80;;;4.00;;
81996;SDS011;71500;50.806;8.774;2024-02-16T01:52:20;7.00;;;3.70;;
81996;SDS011;71500;50.806;8.774;2024-02-16T01:54:51;4.90;;;3.60;;
81996;SDS011;71500;50.806;8.774;2024-02-16T01:57:23;5.60;;;3.60;;
81996;SDS011;71500;50.806;8.774;2024-02-16T01:59:55;7.40;;;3.50;;
81996;SDS011;71500;50.806;8.774;2024-02-16T02:02:27;4.30;;;3.20;;
81996;SDS011;71500;50.806;8.774;2024-02-16T02:04:59;7.00;;;3.90;;
81996;SDS011;71500;50.806;8.774;2024-02-16T02:07:30;6.30;;;4.00;;
81996;SDS011;71500;50.806;8.774;2024-02-16T02:10:03;6.00;;;3.20;;
81996;SDS011;71500;50.806;8.774;2024-02-16T02:12:35;6.00;;;3.60;;
81996;SDS011;71500;50.806;8.774;2024-02-16T02:15:07;4.90;;;3.10;;
81996;SDS011;71500;50.806;8.774;2024-02-16T02:17:40;4.20;;;3.10;;
81996;SDS011;71500;50.806;8.774;2024-02-16T02:20:12;5.30;;;4.10;;
81996;SDS011;71500;50.806;8.774;2024-02-16T02:22:43;5.10;;;3.30;;
81996;SDS011;71500;50.806;8.774;2024-02-16T02:25:15;5.30;;;3.50;;
81996;SDS011;71500;50.806;8.774;2024-02-16T02:27:46;4.30;;;3.30;;
81996;SDS011;71500;50.806;8.774;2024-02-16T02:30:18;5.00;;;3.30;;
81996;SDS011;71500;50.806;8.774;2024-02-16T02:32:50;5.00;;;3.50;;
81996;SDS011;71500;50.806;8.774;2024-02-16T02:35:22;6.00;;;3.70;;
81996;SDS011;71500;50.806;8.774;2024-02-16T02:37:53;4.30;;;3.40;;
81996;SDS011;71500;50.806;8.774;2024-02-16T02:40:24;6.60;;;3.20;;
81996;SDS011;71500;50.806;8.774;2024-02-16T02:42:56;6.90;;;3.50;;
81996;SDS011;71500;50.806;8.774;2024-02-16T02:45:27;5.60;;;3.70;;
81996;SDS011;71500;50.806;8.774;2024-02-16T02:47:59;5.00;;;3.20;;
81996;SDS011;71500;50.806;8.774;2024-02-16T02:50:31;5.10;;;3.30;;
81996;SDS011;71500;50.806;8.774;2024-02-16T02:53:02;4.50;;;3.30;;
81996;SDS011;71500;50.806;8.774;2024-02-16T02:55:35;4.00;;;2.70;;
81996;SDS011;71500;50.806;8.774;2024-02-16T02:58:06;5.20;;;2.90;;
81996;SDS011;71500;50.806;8.774;2024-02-16T03:00:37;5.10;;;3.10;;
81996;SDS011;71500;50.806;8.774;2024-02-16T03:03:10;5.60;;;3.50;;
81996;SDS011;71500;50.806;8.774;2024-02-16T03:05:42;4.10;;;2.80;;
81996;SDS011;71500;50.806;8.774;2024-02-16T03:08:14;5.10;;;3.70;;
81996;SDS011;71500;50.806;8.774;2024-02-16T03:10:45;6.10;;;3.40;;
81996;SDS011;71500;50.806;8.774;2024-02-16T03:13:17;5.30;;;3.00;;
81996;SDS011;71500;50.806;8.774;2024-02-16T03:15:48;5.10;;;3.30;;
81996;SDS011;71500;50.806;8.774;2024-02-16T03:18:20;4.60;;;3.60;;
81996;SDS011;71500;50.806;8.774;2024-02-16T03:20:52;5.60;;;3.50;;
81996;SDS011;71500;50.806;8.774;2024-02-16T03:23:23;5.20;;;3.40;;
81996;SDS011;71500;50.806;8.774;2024-02-16T03:25:55;4.60;;;3.40;;
81996;SDS011;71500;50.806;8.774;2024-02-16T03:28:26;5.70;;;3.70;;
81996;SDS011;71500;50.806;8.774;2024-02-16T03:30:57;6.20;;;3.40;;
81996;SDS011;71500;50.806;8.774;2024-02-16T03:33:29;5.40;;;3.80;;
81996;SDS011;71500;50.806;8.774;2024-02-16T03:36:00;5.30;;;3.50;;
81996;SDS011;71500;50.806;8.774;2024-02-16T03:38:33;5.10;;;3.50;;
81996;SDS011;71500;50.806;8.774;2024-02-16T03:41:04;6.10;;;3.50;;
81996;SDS011;71500;50.806;8.774;2024-02-16T03:43:35;5.50;;;3.90;;
81996;SDS011;71500;50.806;8.774;2024-02-16T03:46:07;4.20;;;3.20;;
81996;SDS011;71500;50.806;8.774;2024-02-16T03:48:38;5.70;;;3.00;;
81996;SDS011;71500;50.806;8.774;2024-02-16T03:51:10;5.60;;;3.50;;
81996;SDS011;71500;50.806;8.774;2024-02-16T03:53:41;4.00;;;3.10;;
81996;SDS011;71500;50.806;8.774;2024-02-16T03:56:17;5.10;;;3.00;;
81996;SDS011;71500;50.806;8.774;2024-02-16T03:58:49;4.30;;;2.90;;
81996;SDS011;71500;50.806;8.774;2024-02-16T04:01:21;4.50;;;2.90;;
81996;SDS011;71500;50.806;8.774;2024-02-16T04:03:52;4.90;;;3.40;;
81996;SDS011;71500;50.806;8.774;2024-02-16T04:06:24;5.00;;;3.20;;
81996;SDS011;71500;50.806;8.774;2024-02-16T04:08:55;4.50;;;2.90;;
81996;SDS011;71500;50.806;8.774;2024-02-16T04:11:27;3.40;;;2.80;;
81996;SDS011;71500;50.806;8.774;2024-02-16T04:13:59;5.60;;;3.20;;
81996;SDS011;71500;50.806;8.774;2024-02-16T04:16:30;4.20;;;3.20;;
81996;SDS011;71500;50.806;8.774;2024-02-16T04:19:02;4.00;;;2.70;;
81996;SDS011;71500;50.806;8.774;2024-02-16T04:21:33;7.00;;;3.40;;
81996;SDS011;71500;50.806;8.774;2024-02-16T04:24:06;4.70;;;3.40;;
81996;SDS011;71500;50.806;8.774;2024-02-16T04:26:38;5.40;;;3.10;;
81996;SDS011;71500;50.806;8.774;2024-02-16T04:29:09;5.90;;;3.30;;
81996;SDS011;71500;50.806;8.774;2024-02-16T04:31:41;5.90;;;3.40;;
81996;SDS011;71500;50.806;8.774;2024-02-16T04:34:14;7.70;;;3.60;;
81996;SDS011;71500;50.806;8.774;2024-02-16T04:36:46;4.30;;;3.20;;
81996;SDS011;71500;50.806;8.774;2024-02-16T04:39:17;5.10;;;3.30;;
81996;SDS011;71500;50.806;8.774;2024-02-16T04:41:49;4.50;;;3.40;;
81996;SDS011;71500;50.806;8.774;2024-02-16T04:44:22;4.50;;;3.10;;
81996;SDS011;71500;50.806;8.774;2024-02-16T04:46:54;5.60;;;3.20;;
81996;SDS011;71500;50.806;8.774;2024-02-16T04:49:25;5.10;;;3.60;;
81996;SDS011;71500;50.806;8.774;2024-02-16T04:51:56;5.20;;;3.20;;
81996;SDS011;71500;50.806;8.774;2024-02-16T04:54:28;6.10;;;3.00;;
81996;SDS011;71500;50.806;8.774;2024-02-16T04:56:59;5.80;;;3.40;;
81996;SDS011;71500;50.806;8.774;2024-02-16T04:59:31;4.40;;;3.40;;
81996;SDS011;71500;50.806;8.774;2024-02-16T05:02:03;5.20;;;3.30;;
81996;SDS011;71500;50.806;8.774;2024-02-16T05:04:35;4.80;;;3.20;;
81996;SDS011;71500;50.806;8.774;2024-02-16T05:07:07;6.50;;;3.70;;
81996;SDS011;71500;50.806;8.774;2024-02-16T05:09:38;5.10;;;3.30;;
81996;SDS011;71500;50.806;8.774;2024-02-16T05:12:10;4.00;;;3.00;;
81996;SDS011;71500;50.806;8.774;2024-02-16T05:14:41;5.50;;;3.70;;
81996;SDS011;71500;50.806;8.774;2024-02-16T05:17:13;5.30;;;3.70;;
81996;SDS011;71500;50.806;8.774;2024-02-16T05:19:44;4.90;;;3.30;;
81996;SDS011;71500;50.806;8.774;2024-02-16T05:22:16;5.40;;;3.30;;
81996;SDS011;71500;50.806;8.774;2024-02-16T05:24:48;5.50;;;3.10;;
81996;SDS011;71500;50.806;8.774;2024-02-16T05:27:19;4.30;;;3.10;;
81996;SDS011;71500;50.806;8.774;2024-02-16T05:29:50;4.50;;;2.70;;
81996;SDS011;71500;50.806;8.774;2024-02-16T05:32:21;4.70;;;3.00;;
81996;SDS011;71500;50.806;8.774;2024-02-16T05:34:53;4.60;;;3.00;;
81996;SDS011;71500;50.806;8.774;2024-02-16T05:37:24;4.10;;;2.70;;
81996;SDS011;71500;50.806;8.774;2024-02-16T05:42:37;4.50;;;3.30;;
81996;SDS011;71500;50.806;8.774;2024-02-16T05:45:09;4.20;;;3.30;;
81996;SDS011;71500;50.806;8.774;2024-02-16T05:47:41;4.50;;;3.10;;
81996;SDS011;71500;50.806;8.774;2024-02-16T05:50:15;5.20;;;3.00;;
81996;SDS011;71500;50.806;8.774;2024-02-16T05:52:46;4.10;;;2.70;;
81996;SDS011;71500;50.806;8.774;2024-02-16T05:55:20;4.00;;;2.60;;
81996;SDS011;71500;50.806;8.774;2024-02-16T06:00:23;5.60;;;2.90;;
81996;SDS011;71500;50.806;8.774;2024-02-16T06:05:26;4.20;;;2.70;;
81996;SDS011;71500;50.806;8.774;2024-02-16T06:07:57;4.20;;;3.10;;
81996;SDS011;71500;50.806;8.774;2024-02-16T06:10:29;6.30;;;2.70;;
81996;SDS011;71500;50.806;8.774;2024-02-16T06:13:01;5.30;;;3.30;;
81996;SDS011;71500;50.806;8.774;2024-02-16T06:15:32;5.60;;;3.40;;
81996;SDS011;71500;50.806;8.774;2024-02-16T06:18:06;4.50;;;3.90;;
81996;SDS011;71500;50.806;8.774;2024-02-16T06:20:38;5.00;;;4.30;;
81996;SDS011;71500;50.806;8.774;2024-02-16T06:23:10;7.20;;;5.60;;
81996;SDS011;71500;50.806;8.774;2024-02-16T06:25:42;6.90;;;5.50;;
81996;SDS011;71500;50.806;8.774;2024-02-16T06:28:13;6.50;;;5.40;;
81996;SDS011;71500;50.806;8.774;2024-02-16T06:30:44;5.70;;;4.80;;
81996;SDS011;71500;50.806;8.774;2024-02-16T06:33:16;5.50;;;4.40;;
81996;SDS011;71500;50.806;8.774;2024-02-16T06:35:48;5.50;;;4.00;;
81996;SDS011;71500;50.806;8.774;2024-02-16T06:38:20;5.60;;;4.10;;
81996;SDS011;71500;50.806;8.774;2024-02-16T06:40:51;10.60;;;7.30;;
81996;SDS011;71500;50.806;8.774;2024-02-16T06:43:22;14.10;;;9.30;;
81996;SDS011;71500;50.806;8.774;2024-02-16T06:45:54;6.70;;;4.90;;
81996;SDS011;71500;50.806;8.774;2024-02-16T06:48:25;6.00;;;4.30;;
81996;SDS011;71500;50.806;8.774;2024-02-16T06:50:57;6.00;;;3.90;;
81996;SDS011;71500;50.806;8.774;2024-02-16T06:53:28;4.70;;;3.50;;
81996;SDS011;71500;50.806;8.774;2024-02-16T06:55:59;5.50;;;4.20;;
81996;SDS011;71500;50.806;8.774;2024-02-16T06:58:31;4.40;;;3.40;;
81996;SDS011;71500;50.806;8.774;2024-02-16T07:01:05;5.00;;;3.10;;
81996;SDS011;71500;50.806;8.774;2024-02-16T07:03:37;4.70;;;3.20;;
81996;SDS011;71500;50.806;8.774;2024-02-16T07:06:09;6.00;;;3.40;;
81996;SDS011;71500;50.806;8.774;2024-02-16T07:08:42;5.20;;;3.70;;
81996;SDS011;71500;50.806;8.774;2024-02-16T07:11:14;5.90;;;3.90;;
81996;SDS011;71500;50.806;8.774;2024-02-16T07:13:46;4.10;;;3.20;;
81996;SDS011;71500;50.806;8.774;2024-02-16T07:16:17;5.80;;;3.70;;
81996;SDS011;71500;50.806;8.774;2024-02-16T07:18:49;6.80;;;3.90;;
81996;SDS011;71500;50.806;8.774;2024-02-16T07:21:20;4.70;;;3.10;;
81996;SDS011;71500;50.806;8.774;2024-02-16T07:23:52;6.20;;;4.70;;
81996;SDS011;71500;50.806;8.774;2024-02-16T07:26:23;5.60;;;4.40;;
81996;SDS011;71500;50.806;8.774;2024-02-16T07:28:54;5.20;;;3.80;;
81996;SDS011;71500;50.806;8.774;2024-02-16T07:31:30;4.60;;;3.60;;
81996;SDS011;71500;50.806;8.774;2024-02-16T07:34:03;5.00;;;4.00;;
81996;SDS011;71500;50.806;8.774;2024-02-16T07:36:35;5.00;;;3.50;;
81996;SDS011;71500;50.806;8.774;2024-02-16T07:39:06;5.00;;;3.30;;
81996;SDS011;71500;50.806;8.774;2024-02-16T07:41:41;4.70;;;4.00;;
81996;SDS011;71500;50.806;8.774;2024-02-16T07:44:12;5.40;;;3.30;;
81996;SDS011;71500;50.806;8.774;2024-02-16T07:46:43;6.00;;;3.40;;
81996;SDS011;71500;50.806;8.774;2024-02-16T07:49:16;5.60;;;3.70;;
81996;SDS011;71500;50.806;8.774;2024-02-16T07:51:48;6.90;;;4.50;;
81996;SDS011;71500;50.806;8.774;2024-02-16T07:54:19;6.00;;;4.40;;
81996;SDS011;71500;50.806;8.774;2024-02-16T07:56:50;5.20;;;4.10;;
81996;SDS011;71500;50.806;8.774;2024-02-16T07:59:22;6.90;;;4.50;;
81996;SDS011;71500;50.806;8.774;2024-02-16T08:01:53;5.60;;;3.70;;
81996;SDS011;71500;50.806;8.774;2024-02-16T08:04:25;5.10;;;3.70;;
81996;SDS011;71500;50.806;8.774;2024-02-16T08:06:56;7.70;;;4.00;;
81996;SDS011;71500;50.806;8.774;2024-02-16T08:09:30;6.00;;;3.30;;
81996;SDS011;71500;50.806;8.774;2024-02-16T08:12:02;5.20;;;4.10;;
81996;SDS011;71500;50.806;8.774;2024-02-16T08:14:35;7.10;;;4.10;;
81996;SDS011;71500;50.806;8.774;2024-02-16T08:17:07;5.00;;;3.50;;
81996;SDS011;71500;50.806;8.774;2024-02-16T08:19:52;6.20;;;4.30;;
81996;SDS011;71500;50.806;8.774;2024-02-16T08:22:24;6.30;;;4.10;;
81996;SDS011;71500;50.806;8.774;2024-02-16T08:24:55;5.40;;;4.00;;
81996;SDS011;71500;50.806;8.774;2024-02-16T08:27:27;4.60;;;3.80;;
81996;SDS011;71500;50.806;8.774;2024-02-16T08:29:58;4.80;;;3.50;;
81996;SDS011;71500;50.806;8.774;2024-02-16T08:32:31;4.70;;;3.60;;
81996;SDS011;71500;50.806;8.774;2024-02-16T08:35:02;5.40;;;4.00;;
81996;SDS011;71500;50.806;8.774;2024-02-16T08:40:06;6.30;;;3.70;;
81996;SDS011;71500;50.806;8.774;2024-02-16T08:42:42;6.10;;;4.30;;
81996;SDS011;71500;50.806;8.774;2024-02-16T08:45:15;5.30;;;3.60;;
81996;SDS011;71500;50.806;8.774;2024-02-16T08:47:46;7.80;;;4.30;;
81996;SDS011;71500;50.806;8.774;2024-02-16T08:50:20;4.50;;;3.90;;
81996;SDS011;71500;50.806;8.774;2024-02-16T08:52:53;6.40;;;3.80;;
81996;SDS011;71500;50.806;8.774;2024-02-16T08:55:24;6.00;;;3.80;;
81996;SDS011;71500;50.806;8.774;2024-02-16T08:57:55;5.40;;;4.20;;
81996;SDS011;71500;50.806;8.774;2024-02-16T09:00:27;5.90;;;3.90;;
81996;SDS011;71500;50.806;8.774;2024-02-16T09:02:58;6.60;;;5.50;;
81996;SDS011;71500;50.806;8.774;2024-02-16T09:08:01;5.90;;;3.70;;
81996;SDS011;71500;50.806;8.774;2024-02-16T09:10:34;5.30;;;3.80;;
81996;SDS011;71500;50.806;8.774;2024-02-16T09:13:06;5.10;;;4.20;;
81996;SDS011;71500;50.806;8.774;2024-02-16T09:15:38;5.90;;;4.10;;
81996;SDS011;71500;50.806;8.774;2024-02-16T09:18:09;6.40;;;4.40;;
81996;SDS011;71500;50.806;8.774;2024-02-16T09:20:41;5.80;;;3.90;;
81996;SDS011;71500;50.806;8.774;2024-02-16T09:23:12;5.20;;;3.90;;
81996;SDS011;71500;50.806;8.774;2024-02-16T09:25:43;5.10;;;4.50;;
81996;SDS011;71500;50.806;8.774;2024-02-16T09:28:15;6.40;;;4.80;;
81996;SDS011;71500;50.806;8.774;2024-02-16T09:30:57;6.00;;;4.10;;
81996;SDS011;71500;50.806;8.774;2024-02-16T09:33:28;5.70;;;3.90;;
81996;SDS011;71500;50.806;8.774;2024-02-16T09:36:00;5.20;;;4.00;;
81996;SDS011;71500;50.806;8.774;2024-02-16T09:38:33;6.20;;;4.60;;
81996;SDS011;71500;50.806;8.774;2024-02-16T09:41:05;7.10;;;4.50;;
81996;SDS011;71500;50.806;8.774;2024-02-16T09:43:36;5.90;;;4.30;;
81996;SDS011;71500;50.806;8.774;2024-02-16T09:46:09;5.90;;;4.60;;
81996;SDS011;71500;50.806;8.774;2024-02-16T09:48:40;7.70;;;5.10;;
81996;SDS011;71500;50.806;8.774;2024-02-16T09:51:14;9.60;;;5.50;;
81996;SDS011;71500;50.806;8.774;2024-02-16T09:53:47;7.10;;;4.60;;
81996;SDS011;71500;50.806;8.774;2024-02-16T09:56:27;5.60;;;4.50;;
81996;SDS011;71500;50.806;8.774;2024-02-16T09:58:59;7.10;;;4.60;;
81996;SDS011;71500;50.806;8.774;2024-02-16T10:01:33;5.20;;;3.80;;
81996;SDS011;71500;50.806;8.774;2024-02-16T10:04:08;5.50;;;4.20;;
81996;SDS011;71500;50.806;8.774;2024-02-16T10:06:47;7.00;;;4.30;;
81996;SDS011;71500;50.806;8.774;2024-02-16T10:09:25;7.10;;;5.10;;
81996;SDS011;71500;50.806;8.774;2024-02-16T10:14:28;7.40;;;4.40;;
81996;SDS011;71500;50.806;8.774;2024-02-16T10:22:10;5.10;;;3.70;;
81996;SDS011;71500;50.806;8.774;2024-02-16T10:24:42;6.20;;;4.80;;
81996;SDS011;71500;50.806;8.774;2024-02-16T10:27:15;7.20;;;4.60;;
81996;SDS011;71500;50.806;8.774;2024-02-16T10:29:48;6.30;;;4.20;;
81996;SDS011;71500;50.806;8.774;2024-02-16T10:32:22;6.50;;;4.20;;
81996;SDS011;71500;50.806;8.774;2024-02-16T10:34:54;5.00;;;3.90;;
81996;SDS011;71500;50.806;8.774;2024-02-16T10:37:27;6.60;;;4.90;;
81996;SDS011;71500;50.806;8.774;2024-02-16T10:39:59;6.90;;;5.20;;
81996;SDS011;71500;50.806;8.774;2024-02-16T10:42:31;6.60;;;5.00;;
81996;SDS011;71500;50.806;8.774;2024-02-16T10:45:07;8.40;;;5.60;;
81996;SDS011;71500;50.806;8.774;2024-02-16T10:47:42;8.00;;;5.80;;
81996;SDS011;71500;50.806;8.774;2024-02-16T10:50:13;8.30;;;5.90;;
81996;SDS011;71500;50.806;8.774;2024-02-16T10:52:45;6.10;;;5.00;;
81996;SDS011;71500;50.806;8.774;2024-02-16T10:55:18;7.60;;;4.40;;
81996;SDS011;71500;50.806;8.774;2024-02-16T10:57:50;6.30;;;4.70;;
81996;SDS011;71500;50.806;8.774;2024-02-16T11:00:24;7.70;;;4.50;;
81996;SDS011;71500;50.806;8.774;2024-02-16T11:02:56;7.40;;;4.50;;
81996;SDS011;71500;50.806;8.774;2024-02-16T11:05:34;7.40;;;5.00;;
81996;SDS011;71500;50.806;8.774;2024-02-16T11:08:13;8.60;;;4.40;;
81996;SDS011;71500;50.806;8.774;2024-02-16T11:10:54;6.10;;;4.70;;
81996;SDS011;71500;50.806;8.774;2024-02-16T11:13:31;6.50;;;4.10;;
81996;SDS011;71500;50.806;8.774;2024-02-16T11:16:06;6.00;;;4.90;;
81996;SDS011;71500;50.806;8.774;2024-02-16T11:18:39;6.00;;;3.60;;
81996;SDS011;71500;50.806;8.774;2024-02-16T11:21:14;5.80;;;4.00;;
81996;SDS011;71500;50.806;8.774;2024-02-16T11:23:46;5.90;;;4.50;;
81996;SDS011;71500;50.806;8.774;2024-02-16T11:26:18;5.00;;;4.10;;
81996;SDS011;71500;50.806;8.774;2024-02-16T11:28:49;6.70;;;4.60;;
81996;SDS011;71500;50.806;8.774;2024-02-16T11:31:22;5.90;;;3.70;;
81996;SDS011;71500;50.806;8.774;2024-02-16T11:33:53;6.10;;;4.30;;
81996;SDS011;71500;50.806;8.774;2024-02-16T11:36:25;8.30;;;3.80;;
81996;SDS011;71500;50.806;8.774;2024-02-16T11:38:56;7.30;;;4.40;;
81996;SDS011;71500;50.806;8.774;2024-02-16T11:41:28;6.60;;;4.20;;
81996;SDS011;71500;50.806;8.774;2024-02-16T11:44:00;6.20;;;3.90;;
81996;SDS011;71500;50.806;8.774;2024-02-16T11:46:32;5.80;;;4.10;;
81996;SDS011;71500;50.806;8.774;2024-02-16T11:49:07;6.40;;;4.20;;
81996;SDS011;71500;50.806;8.774;2024-02-16T11:51:40;6.00;;;3.60;;
81996;SDS011;71500;50.806;8.774;2024-02-16T11:54:12;5.40;;;3.80;;
81996;SDS011;71500;50.806;8.774;2024-02-16T11:59:14;5.70;;;3.60;;
81996;SDS011;71500;50.806;8.774;2024-02-16T12:01:51;5.70;;;4.10;;
81996;SDS011;71500;50.806;8.774;2024-02-16T12:04:24;5.00;;;3.70;;
81996;SDS011;71500;50.806;8.774;2024-02-16T12:06:56;5.10;;;3.80;;
81996;SDS011;71500;50.806;8.774;2024-02-16T12:09:33;4.80;;;3.60;;
81996;SDS011;71500;50.806;8.774;2024-02-16T12:12:06;5.10;;;3.70;;
81996;SDS011;71500;50.806;8.774;2024-02-16T12:14:37;6.40;;;3.90;;
81996;SDS011;71500;50.806;8.774;2024-02-16T12:17:09;6.40;;;3.70;;
81996;SDS011;71500;50.806;8.774;2024-02-16T12:19:44;5.70;;;3.30;;
81996;SDS011;71500;50.806;8.774;2024-02-16T12:22:17;5.90;;;3.20;;
81996;SDS011;71500;50.806;8.774;2024-02-16T12:24:50;6.50;;;4.20;;
81996;SDS011;71500;50.806;8.774;2024-02-16T12:27:21;6.90;;;3.60;;
81996;SDS011;71500;50.806;8.774;2024-02-16T12:29:53;6.20;;;3.40;;
81996;SDS011;71500;50.806;8.774;2024-02-16T12:32:24;5.50;;;3.40;;
81996;SDS011;71500;50.806;8.774;2024-02-16T12:34:55;5.50;;;3.80;;
81996;SDS011;71500;50.806;8.774;2024-02-16T12:37:27;5.70;;;4.20;;
81996;SDS011;71500;50.806;8.774;2024-02-16T12:39:59;7.40;;;4.20;;
81996;SDS011;71500;50.806;8.774;2024-02-16T12:42:30;6.30;;;3.70;;
81996;SDS011;71500;50.806;8.774;2024-02-16T12:45:02;5.10;;;3.20;;
81996;SDS011;71500;50.806;8.774;2024-02-16T12:50:06;4.80;;;3.50;;
81996;SDS011;71500;50.806;8.774;2024-02-16T12:52:38;6.80;;;3.70;;
81996;SDS011;71500;50.806;8.774;2024-02-16T12:55:22;5.60;;;3.40;;
81996;SDS011;71500;50.806;8.774;2024-02-16T12:57:53;5.70;;;3.70;;
81996;SDS011;71500;50.806;8.774;2024-02-16T13:00:25;4.30;;;3.10;;
81996;SDS011;71500;50.806;8.774;2024-02-16T13:02:57;7.90;;;3.60;;
81996;SDS011;71500;50.806;8.774;2024-02-16T13:05:29;4.50;;;3.50;;
81996;SDS011;71500;50.806;8.774;2024-02-16T13:08:01;5.70;;;3.10;;
81996;SDS011;71500;50.806;8.774;2024-02-16T13:10:34;4.60;;;2.90;;
81996;SDS011;71500;50.806;8.774;2024-02-16T13:13:05;6.20;;;3.40;;
81996;SDS011;71500;50.806;8.774;2024-02-16T13:15:36;6.30;;;3.50;;
81996;SDS011;71500;50.806;8.774;2024-02-16T13:18:08;6.70;;;3.60;;
81996;SDS011;71500;50.806;8.774;2024-02-16T13:20:40;4.30;;;3.10;;
81996;SDS011;71500;50.806;8.774;2024-02-16T13:23:11;6.70;;;3.40;;
81996;SDS011;71500;50.806;8.774;2024-02-16T13:25:43;4.80;;;3.70;;
81996;SDS011;71500;50.806;8.774;2024-02-16T13:28:14;4.80;;;2.80;;
81996;SDS011;71500;50.806;8.774;2024-02-16T13:30:45;4.90;;;2.90;;
81996;SDS011;71500;50.806;8.774;2024-02-16T13:33:17;5.80;;;3.40;;
81996;SDS011;71500;50.806;8.774;2024-02-16T13:35:49;5.20;;;3.10;;
81996;SDS011;71500;50.806;8.774;2024-02-16T13:38:20;5.40;;;2.90;;
81996;SDS011;71500;50.806;8.774;2024-02-16T13:40:51;5.50;;;3.00;;
81996;SDS011;71500;50.806;8.774;2024-02-16T13:43:24;7.40;;;4.40;;
81996;SDS011;71500;50.806;8.774;2024-02-16T13:45:56;5.20;;;2.80;;
81996;SDS011;71500;50.806;8.774;2024-02-16T13:48:29;6.20;;;2.50;;
81996;SDS011;71500;50.806;8.774;2024-02-16T13:51:00;3.90;;;2.40;;
81996;SDS011;71500;50.806;8.774;2024-02-16T13:53:35;4.80;;;2.80;;
81996;SDS011;71500;50.806;8.774;2024-02-16T13:58:37;4.00;;;2.60;;
81996;SDS011;71500;50.806;8.774;2024-02-16T14:01:09;4.40;;;2.80;;
81996;SDS011;71500;50.806;8.774;2024-02-16T14:03:40;6.60;;;3.00;;
81996;SDS011;71500;50.806;8.774;2024-02-16T14:06:13;5.40;;;3.20;;
81996;SDS011;71500;50.806;8.774;2024-02-16T14:08:44;4.50;;;2.90;;
81996;SDS011;71500;50.806;8.774;2024-02-16T14:11:17;5.50;;;2.80;;
81996;SDS011;71500;50.806;8.774;2024-02-16T14:13:49;5.00;;;2.70;;
81996;SDS011;71500;50.806;8.774;2024-02-16T14:16:20;5.70;;;3.40;;
81996;SDS011;71500;50.806;8.774;2024-02-16T14:18:51;5.60;;;2.80;;
81996;SDS011;71500;50.806;8.774;2024-02-16T14:21:23;5.80;;;2.60;;
81996;SDS011;71500;50.806;8.774;2024-02-16T14:23:57;5.20;;;2.90;;
81996;SDS011;71500;50.806;8.774;2024-02-16T14:26:29;4.70;;;3.00;;
81996;SDS011;71500;50.806;8.774;2024-02-16T14:29:00;4.30;;;2.80;;
81996;SDS011;71500;50.806;8.774;2024-02-16T14:31:32;5.40;;;3.10;;
81996;SDS011;71500;50.806;8.774;2024-02-16T14:34:04;4.60;;;2.90;;
81996;SDS011;71500;50.806;8.774;2024-02-16T14:36:36;3.70;;;2.70;;
81996;SDS011;71500;50.806;8.774;2024-02-16T14:39:07;4.70;;;3.00;;
81996;SDS011;71500;50.806;8.774;2024-02-16T14:41:40;5.50;;;2.90;;
81996;SDS011;71500;50.806;8.774;2024-02-16T14:44:12;6.80;;;3.40;;
81996;SDS011;71500;50.806;8.774;2024-02-16T14:46:43;4.60;;;2.80;;
81996;SDS011;71500;50.806;8.774;2024-02-16T14:49:15;4.20;;;2.40;;
81996;SDS011;71500;50.806;8.774;2024-02-16T14:51:50;6.80;;;3.00;;
81996;SDS011;71500;50.806;8.774;2024-02-16T14:54:22;4.20;;;2.60;;
81996;SDS011;71500;50.806;8.774;2024-02-16T14:56:54;5.70;;;2.80;;
81996;SDS011;71500;50.806;8.774;2024-02-16T14:59:26;6.50;;;3.10;;
81996;SDS011;71500;50.806;8.774;2024-02-16T15:01:58;7.10;;;3.90;;
81996;SDS011;71500;50.806;8.774;2024-02-16T15:04:31;4.00;;;2.50;;
81996;SDS011;71500;50.806;8.774;2024-02-16T15:07:02;4.20;;;2.60;;
81996;SDS011;71500;50.806;8.774;2024-02-16T15:09:34;5.60;;;2.60;;
81996;SDS011;71500;50.806;8.774;2024-02-16T15:12:06;4.80;;;2.50;;
81996;SDS011;71500;50.806;8.774;2024-02-16T15:17:08;6.10;;;2.60;;
81996;SDS011;71500;50.806;8.774;2024-02-16T15:19:39;3.70;;;2.60;;
81996;SDS011;71500;50.806;8.774;2024-02-16T15:22:11;4.60;;;2.60;;
81996;SDS011;71500;50.806;8.774;2024-02-16T15:24:43;4.70;;;2.50;;
81996;SDS011;71500;50.806;8.774;2024-02-16T15:27:14;5.70;;;3.20;;
81996;SDS011;71500;50.806;8.774;2024-02-16T15:29:45;4.90;;;3.30;;
81996;SDS011;71500;50.806;8.774;2024-02-16T15:34:48;3.40;;;2.40;;
81996;SDS011;71500;50.806;8.774;2024-02-16T15:37:22;6.20;;;2.80;;
81996;SDS011;71500;50.806;8.774;2024-02-16T15:39:53;3.40;;;2.70;;
81996;SDS011;71500;50.806;8.774;2024-02-16T15:42:28;4.20;;;2.70;;
81996;SDS011;71500;50.806;8.774;2024-02-16T15:45:00;6.40;;;3.20;;
81996;SDS011;71500;50.806;8.774;2024-02-16T15:47:33;4.20;;;2.70;;
81996;SDS011;71500;50.806;8.774;2024-02-16T15:50:06;5.10;;;2.90;;